sensor_id;sensor_type;location;lat;lon;timestamp;pressure;altitude;pressure_sealevel;temperature;humidity
60489;BME280;46331;49.252;8.904;2023-12-28T00:00:10;99782.66;;;7.46;60.95
60489;BME280;46331;49.252;8.904;2023-12-28T00:00:50;99774.81;;;7.40;61.72
60489;BME280;46331;49.252;8.904;2023-12-28T00:01:31;99787.38;;;7.38;61.96
60489;BME280;46331;49.252;8.904;2023-12-28T00:02:12;99779.03;;;7.47;61.29
60489;BME280;46331;49.252;8.904;2023-12-28T00:02:54;99789.28;;;7.30;61.68
60489;BME280;46331;49.252;8.904;2023-12-28T00:03:34;99794.22;;;7.20;61.76
60489;BME280;46331;49.252;8.904;2023-12-28T00:04:15;99794.03;;;7.47;61.35
60489;BME280;46331;49.252;8.904;2023-12-28T00:04:55;99792.00;;;7.49;60.88
60489;BME280;46331;49.252;8.904;2023-12-28T00:05:36;99790.16;;;7.49;61.07
60489;BME280;46331;49.252;8.904;2023-12-28T00:06:17;99791.50;;;7.59;60.88
60489;BME280;46331;49.252;8.904;2023-12-28T00:06:57;99795.38;;;7.31;61.34
60489;BME280;46331;49.252;8.904;2023-12-28T00:07:38;99781.75;;;7.34;61.72
60489;BME280;46331;49.252;8.904;2023-12-28T00:08:18;99790.03;;;7.38;61.35
60489;BME280;46331;49.252;8.904;2023-12-28T00:08:59;99800.41;;;7.01;62.01
60489;BME280;46331;49.252;8.904;2023-12-28T00:09:41;99799.88;;;6.85;62.83
60489;BME280;46331;49.252;8.904;2023-12-28T00:10:21;99783.53;;;7.08;62.79
60489;BME280;46331;49.252;8.904;2023-12-28T00:11:02;99799.00;;;7.30;62.04
60489;BME280;46331;49.252;8.904;2023-12-28T00:11:43;99790.44;;;7.41;61.86
60489;BME280;46331;49.252;8.904;2023-12-28T00:12:23;99797.69;;;7.46;61.00
60489;BME280;46331;49.252;8.904;2023-12-28T00:13:04;99798.72;;;7.45;61.00
60489;BME280;46331;49.252;8.904;2023-12-28T00:13:44;99793.72;;;7.37;60.91
60489;BME280;46331;49.252;8.904;2023-12-28T00:14:25;99801.84;;;7.35;61.04
60489;BME280;46331;49.252;8.904;2023-12-28T00:15:06;99793.72;;;7.37;60.86
60489;BME280;46331;49.252;8.904;2023-12-28T00:15:47;99793.16;;;7.28;60.87
60489;BME280;46331;49.252;8.904;2023-12-28T00:16:27;99794.94;;;7.34;61.06
60489;BME280;46331;49.252;8.904;2023-12-28T00:17:08;99790.47;;;7.34;60.89
60489;BME280;46331;49.252;8.904;2023-12-28T00:17:48;99784.44;;;7.27;60.63
60489;BME280;46331;49.252;8.904;2023-12-28T00:18:29;99788.50;;;7.23;60.90
60489;BME280;46331;49.252;8.904;2023-12-28T00:19:10;99787.28;;;7.26;60.74
60489;BME280;46331;49.252;8.904;2023-12-28T00:19:50;99789.84;;;7.07;60.61
60489;BME280;46331;49.252;8.904;2023-12-28T00:20:31;99789.94;;;7.19;61.42
60489;BME280;46331;49.252;8.904;2023-12-28T00:21:11;99790.56;;;7.21;61.30
60489;BME280;46331;49.252;8.904;2023-12-28T00:21:52;99796.66;;;6.83;62.11
60489;BME280;46331;49.252;8.904;2023-12-28T00:22:32;99790.91;;;6.93;62.07
60489;BME280;46331;49.252;8.904;2023-12-28T00:23:13;99795.91;;;7.08;61.51
60489;BME280;46331;49.252;8.904;2023-12-28T00:23:53;99793.22;;;7.14;60.95
60489;BME280;46331;49.252;8.904;2023-12-28T00:24:34;99784.16;;;7.10;61.24
60489;BME280;46331;49.252;8.904;2023-12-28T00:25:14;99792.22;;;7.15;61.62
60489;BME280;46331;49.252;8.904;2023-12-28T00:25:55;99799.53;;;7.13;61.05
60489;BME280;46331;49.252;8.904;2023-12-28T00:26:35;99802.28;;;6.93;62.20
60489;BME280;46331;49.252;8.904;2023-12-28T00:27:18;99791.84;;;7.12;60.82
60489;BME280;46331;49.252;8.904;2023-12-28T00:27:58;99792.00;;;7.17;61.00
60489;BME280;46331;49.252;8.904;2023-12-28T00:28:39;99797.28;;;7.17;61.05
60489;BME280;46331;49.252;8.904;2023-12-28T00:29:19;99791.78;;;7.19;60.72
60489;BME280;46331;49.252;8.904;2023-12-28T00:30:01;99799.28;;;7.22;60.96
60489;BME280;46331;49.252;8.904;2023-12-28T00:30:41;99787.94;;;7.21;60.59
60489;BME280;46331;49.252;8.904;2023-12-28T00:31:22;99801.13;;;7.14;61.02
60489;BME280;46331;49.252;8.904;2023-12-28T00:32:03;99797.78;;;7.01;62.06
60489;BME280;46331;49.252;8.904;2023-12-28T00:32:44;99791.41;;;7.15;60.90
60489;BME280;46331;49.252;8.904;2023-12-28T00:33:26;99797.06;;;7.19;61.17
60489;BME280;46331;49.252;8.904;2023-12-28T00:34:06;99800.94;;;7.16;61.29
60489;BME280;46331;49.252;8.904;2023-12-28T00:34:47;99794.28;;;7.13;61.67
60489;BME280;46331;49.252;8.904;2023-12-28T00:35:27;99796.84;;;7.20;61.49
60489;BME280;46331;49.252;8.904;2023-12-28T00:36:08;99803.53;;;7.23;60.81
60489;BME280;46331;49.252;8.904;2023-12-28T00:36:50;99798.28;;;7.23;60.70
60489;BME280;46331;49.252;8.904;2023-12-28T00:37:30;99800.28;;;7.21;61.13
60489;BME280;46331;49.252;8.904;2023-12-28T00:38:11;99795.44;;;7.18;60.57
60489;BME280;46331;49.252;8.904;2023-12-28T00:38:52;99796.63;;;7.22;60.85
60489;BME280;46331;49.252;8.904;2023-12-28T00:39:32;99792.00;;;7.17;60.53
60489;BME280;46331;49.252;8.904;2023-12-28T00:40:14;99794.91;;;7.09;60.45
60489;BME280;46331;49.252;8.904;2023-12-28T00:40:55;99790.06;;;7.06;60.29
60489;BME280;46331;49.252;8.904;2023-12-28T00:41:36;99795.13;;;7.01;60.71
60489;BME280;46331;49.252;8.904;2023-12-28T00:42:17;99795.66;;;7.16;59.79
60489;BME280;46331;49.252;8.904;2023-12-28T00:42:59;99792.72;;;6.99;60.46
60489;BME280;46331;49.252;8.904;2023-12-28T00:43:39;99797.97;;;7.06;61.09
60489;BME280;46331;49.252;8.904;2023-12-28T00:44:20;99796.66;;;6.83;60.81
60489;BME280;46331;49.252;8.904;2023-12-28T00:45:00;99798.19;;;6.97;61.27
60489;BME280;46331;49.252;8.904;2023-12-28T00:45:41;99802.66;;;6.97;61.49
60489;BME280;46331;49.252;8.904;2023-12-28T00:46:23;99801.81;;;7.03;61.01
60489;BME280;46331;49.252;8.904;2023-12-28T00:47:03;99793.13;;;6.96;61.06
60489;BME280;46331;49.252;8.904;2023-12-28T00:47:44;99801.66;;;6.98;60.26
60489;BME280;46331;49.252;8.904;2023-12-28T00:48:25;99801.66;;;6.98;60.59
60489;BME280;46331;49.252;8.904;2023-12-28T00:49:05;99801.03;;;6.96;60.54
60489;BME280;46331;49.252;8.904;2023-12-28T00:49:48;99802.09;;;6.88;60.39
60489;BME280;46331;49.252;8.904;2023-12-28T00:50:28;99807.34;;;6.95;60.68
60489;BME280;46331;49.252;8.904;2023-12-28T00:51:12;99792.34;;;6.95;60.55
60489;BME280;46331;49.252;8.904;2023-12-28T00:51:52;99798.44;;;6.89;60.60
60489;BME280;46331;49.252;8.904;2023-12-28T00:52:33;99796.44;;;6.85;60.33
60489;BME280;46331;49.252;8.904;2023-12-28T00:53:13;99802.72;;;6.90;60.73
60489;BME280;46331;49.252;8.904;2023-12-28T00:53:54;99797.59;;;6.95;60.79
60489;BME280;46331;49.252;8.904;2023-12-28T00:54:36;99793.97;;;6.96;60.30
60489;BME280;46331;49.252;8.904;2023-12-28T00:55:17;99790.38;;;6.84;60.20
60489;BME280;46331;49.252;8.904;2023-12-28T00:55:57;99799.09;;;6.85;60.11
60489;BME280;46331;49.252;8.904;2023-12-28T00:56:38;99792.59;;;6.87;60.66
60489;BME280;46331;49.252;8.904;2023-12-28T00:57:19;99790.75;;;6.88;60.89
60489;BME280;46331;49.252;8.904;2023-12-28T00:57:59;99786.91;;;6.90;60.75
60489;BME280;46331;49.252;8.904;2023-12-28T00:58:40;99786.06;;;6.90;60.21
60489;BME280;46331;49.252;8.904;2023-12-28T00:59:21;99790.34;;;6.91;60.54
60489;BME280;46331;49.252;8.904;2023-12-28T01:00:01;99786.47;;;6.93;60.54
60489;BME280;46331;49.252;8.904;2023-12-28T01:00:43;99790.13;;;6.92;60.90
60489;BME280;46331;49.252;8.904;2023-12-28T01:01:24;99788.72;;;6.90;60.31
60489;BME280;46331;49.252;8.904;2023-12-28T01:02:04;99789.75;;;6.89;60.30
60489;BME280;46331;49.252;8.904;2023-12-28T01:02:45;99783.66;;;6.88;60.27
60489;BME280;46331;49.252;8.904;2023-12-28T01:03:29;99784.06;;;6.85;59.73
60489;BME280;46331;49.252;8.904;2023-12-28T01:04:10;99787.94;;;6.83;60.14
60489;BME280;46331;49.252;8.904;2023-12-28T01:04:51;99790.16;;;6.86;60.49
60489;BME280;46331;49.252;8.904;2023-12-28T01:05:31;99790.16;;;6.86;61.00
60489;BME280;46331;49.252;8.904;2023-12-28T01:06:12;99791.00;;;6.79;59.73
60489;BME280;46331;49.252;8.904;2023-12-28T01:06:53;99789.97;;;6.80;60.08
60489;BME280;46331;49.252;8.904;2023-12-28T01:07:35;99791.00;;;6.79;60.69
60489;BME280;46331;49.252;8.904;2023-12-28T01:08:15;99795.25;;;6.80;60.49
60489;BME280;46331;49.252;8.904;2023-12-28T01:08:56;99795.31;;;6.60;60.59
60489;BME280;46331;49.252;8.904;2023-12-28T01:09:37;99797.72;;;6.75;60.61
60489;BME280;46331;49.252;8.904;2023-12-28T01:10:17;99791.44;;;6.76;60.38
60489;BME280;46331;49.252;8.904;2023-12-28T01:10:58;99794.91;;;6.70;60.29
60489;BME280;46331;49.252;8.904;2023-12-28T01:11:39;99787.34;;;6.80;60.51
60489;BME280;46331;49.252;8.904;2023-12-28T01:12:19;99799.13;;;6.78;60.67
60489;BME280;46331;49.252;8.904;2023-12-28T01:13:00;99796.78;;;6.56;60.99
60489;BME280;46331;49.252;8.904;2023-12-28T01:13:40;99798.13;;;6.72;60.29
60489;BME280;46331;49.252;8.904;2023-12-28T01:14:21;99802.78;;;6.77;59.75
60489;BME280;46331;49.252;8.904;2023-12-28T01:15:01;99796.66;;;6.83;59.57
60489;BME280;46331;49.252;8.904;2023-12-28T01:15:42;99796.28;;;6.79;60.24
60489;BME280;46331;49.252;8.904;2023-12-28T01:16:23;99800.31;;;6.82;60.42
60489;BME280;46331;49.252;8.904;2023-12-28T01:17:04;99793.06;;;6.71;60.48
60489;BME280;46331;49.252;8.904;2023-12-28T01:17:44;99799.94;;;6.78;60.09
60489;BME280;46331;49.252;8.904;2023-12-28T01:18:25;99797.25;;;6.85;60.19
60489;BME280;46331;49.252;8.904;2023-12-28T01:19:06;99796.03;;;6.88;59.73
60489;BME280;46331;49.252;8.904;2023-12-28T01:19:46;99795.03;;;6.82;60.39
60489;BME280;46331;49.252;8.904;2023-12-28T01:20:27;99785.00;;;6.66;60.59
60489;BME280;46331;49.252;8.904;2023-12-28T01:21:08;99791.22;;;6.71;61.47
60489;BME280;46331;49.252;8.904;2023-12-28T01:21:49;99799.09;;;6.85;60.79
60489;BME280;46331;49.252;8.904;2023-12-28T01:22:30;99794.81;;;6.90;60.27
60489;BME280;46331;49.252;8.904;2023-12-28T01:23:10;99796.81;;;6.95;59.95
60489;BME280;46331;49.252;8.904;2023-12-28T01:23:51;99791.13;;;6.91;59.96
60489;BME280;46331;49.252;8.904;2023-12-28T01:24:31;99795.59;;;6.91;60.22
60489;BME280;46331;49.252;8.904;2023-12-28T01:25:12;99796.59;;;6.96;60.01
60489;BME280;46331;49.252;8.904;2023-12-28T01:25:55;99794.94;;;7.02;59.96
60489;BME280;46331;49.252;8.904;2023-12-28T01:26:36;99787.47;;;6.92;60.72
60489;BME280;46331;49.252;8.904;2023-12-28T01:27:16;99786.47;;;6.93;59.72
60489;BME280;46331;49.252;8.904;2023-12-28T01:27:57;99791.75;;;6.87;60.11
60489;BME280;46331;49.252;8.904;2023-12-28T01:28:37;99782.22;;;6.92;60.26
60489;BME280;46331;49.252;8.904;2023-12-28T01:29:18;99778.59;;;6.87;60.05
60489;BME280;46331;49.252;8.904;2023-12-28T01:29:58;99776.78;;;6.87;60.21
60489;BME280;46331;49.252;8.904;2023-12-28T01:30:39;99783.44;;;6.90;59.86
60489;BME280;46331;49.252;8.904;2023-12-28T01:31:19;99786.69;;;6.85;60.54
60489;BME280;46331;49.252;8.904;2023-12-28T01:32:00;99792.81;;;6.86;60.40
60489;BME280;46331;49.252;8.904;2023-12-28T01:32:40;99795.44;;;6.86;60.66
60489;BME280;46331;49.252;8.904;2023-12-28T01:33:21;99797.66;;;6.89;60.06
60489;BME280;46331;49.252;8.904;2023-12-28T01:34:01;99790.91;;;6.93;59.86
60489;BME280;46331;49.252;8.904;2023-12-28T01:34:43;99800.06;;;6.90;59.77
60489;BME280;46331;49.252;8.904;2023-12-28T01:35:23;99799.47;;;6.88;60.24
60489;BME280;46331;49.252;8.904;2023-12-28T01:36:19;99796.56;;;7.03;59.96
60489;BME280;46331;49.252;8.904;2023-12-28T01:36:59;99798.63;;;6.94;59.60
60489;BME280;46331;49.252;8.904;2023-12-28T01:37:40;99796.19;;;6.93;60.18
60489;BME280;46331;49.252;8.904;2023-12-28T01:38:20;99804.59;;;6.76;60.29
60489;BME280;46331;49.252;8.904;2023-12-28T01:39:01;99802.78;;;6.77;60.99
60489;BME280;46331;49.252;8.904;2023-12-28T01:39:41;99800.59;;;6.67;60.86
60489;BME280;46331;49.252;8.904;2023-12-28T01:40:22;99807.78;;;6.85;61.01
60489;BME280;46331;49.252;8.904;2023-12-28T01:41:02;99788.72;;;6.90;59.94
60489;BME280;46331;49.252;8.904;2023-12-28T01:41:44;99808.53;;;6.99;60.31
60489;BME280;46331;49.252;8.904;2023-12-28T01:42:26;99814.16;;;6.71;60.78
60489;BME280;46331;49.252;8.904;2023-12-28T01:43:06;99807.53;;;6.55;61.60
60489;BME280;46331;49.252;8.904;2023-12-28T01:43:47;99807.63;;;6.80;60.41
60489;BME280;46331;49.252;8.904;2023-12-28T01:44:27;99813.88;;;6.86;60.73
60489;BME280;46331;49.252;8.904;2023-12-28T01:45:08;99812.63;;;6.95;60.02
60489;BME280;46331;49.252;8.904;2023-12-28T01:45:49;99814.66;;;6.93;60.47
60489;BME280;46331;49.252;8.904;2023-12-28T01:46:29;99811.84;;;6.42;61.31
60489;BME280;46331;49.252;8.904;2023-12-28T01:47:11;99818.97;;;6.80;60.58
60489;BME280;46331;49.252;8.904;2023-12-28T01:47:57;99820.28;;;7.03;60.07
60489;BME280;46331;49.252;8.904;2023-12-28T01:48:38;99813.84;;;6.92;60.10
60489;BME280;46331;49.252;8.904;2023-12-28T01:49:19;99814.66;;;6.93;60.11
60489;BME280;46331;49.252;8.904;2023-12-28T01:50:02;99816.22;;;7.01;60.11
60489;BME280;46331;49.252;8.904;2023-12-28T01:50:43;99816.13;;;6.82;60.57
60489;BME280;46331;49.252;8.904;2023-12-28T01:51:23;99814.78;;;6.66;60.83
60489;BME280;46331;49.252;8.904;2023-12-28T01:52:06;99821.16;;;6.90;60.82
60489;BME280;46331;49.252;8.904;2023-12-28T01:52:47;99816.88;;;6.96;60.28
60489;BME280;46331;49.252;8.904;2023-12-28T01:53:29;99818.13;;;6.87;60.27
60489;BME280;46331;49.252;8.904;2023-12-28T01:54:10;99822.34;;;6.94;60.14
60489;BME280;46331;49.252;8.904;2023-12-28T01:54:50;99826.03;;;6.93;60.17
60489;BME280;46331;49.252;8.904;2023-12-28T01:55:31;99823.56;;;6.98;59.97
60489;BME280;46331;49.252;8.904;2023-12-28T01:56:13;99824.41;;;6.92;59.32
60489;BME280;46331;49.252;8.904;2023-12-28T01:56:54;99824.81;;;6.89;59.82
60489;BME280;46331;49.252;8.904;2023-12-28T01:57:36;99824.81;;;6.89;59.72
60489;BME280;46331;49.252;8.904;2023-12-28T01:58:17;99820.34;;;6.90;59.77
60489;BME280;46331;49.252;8.904;2023-12-28T01:58:59;99819.34;;;6.91;59.75
60489;BME280;46331;49.252;8.904;2023-12-28T01:59:41;99823.19;;;6.95;59.85
60489;BME280;46331;49.252;8.904;2023-12-28T02:00:22;99826.66;;;6.89;60.10
60489;BME280;46331;49.252;8.904;2023-12-28T02:01:04;99828.88;;;6.92;60.12
60489;BME280;46331;49.252;8.904;2023-12-28T02:01:45;99816.31;;;6.87;59.58
60489;BME280;46331;49.252;8.904;2023-12-28T02:02:27;99819.34;;;6.91;59.91
60489;BME280;46331;49.252;8.904;2023-12-28T02:03:07;99820.56;;;6.88;59.60
60489;BME280;46331;49.252;8.904;2023-12-28T02:03:48;99815.06;;;6.90;60.06
60489;BME280;46331;49.252;8.904;2023-12-28T02:04:29;99816.66;;;6.97;59.91
60489;BME280;46331;49.252;8.904;2023-12-28T02:05:11;99819.97;;;6.86;60.77
60489;BME280;46331;49.252;8.904;2023-12-28T02:05:53;99816.44;;;6.99;59.69
60489;BME280;46331;49.252;8.904;2023-12-28T02:06:34;99811.16;;;6.99;59.80
60489;BME280;46331;49.252;8.904;2023-12-28T02:07:14;99815.44;;;7.00;59.68
60489;BME280;46331;49.252;8.904;2023-12-28T02:07:55;99809.34;;;7.00;59.76
60489;BME280;46331;49.252;8.904;2023-12-28T02:08:37;99811.81;;;6.94;60.27
60489;BME280;46331;49.252;8.904;2023-12-28T02:09:18;99806.94;;;6.91;60.69
60489;BME280;46331;49.252;8.904;2023-12-28T02:09:58;99809.78;;;6.90;60.83
60489;BME280;46331;49.252;8.904;2023-12-28T02:10:40;99810.53;;;7.04;60.23
60489;BME280;46331;49.252;8.904;2023-12-28T02:11:20;99816.81;;;7.09;59.81
60489;BME280;46331;49.252;8.904;2023-12-28T02:12:01;99810.31;;;7.12;59.45
60489;BME280;46331;49.252;8.904;2023-12-28T02:12:43;99820.63;;;7.13;60.02
60489;BME280;46331;49.252;8.904;2023-12-28T02:13:24;99811.69;;;7.14;59.48
60489;BME280;46331;49.252;8.904;2023-12-28T02:14:05;99799.97;;;7.04;59.78
60489;BME280;46331;49.252;8.904;2023-12-28T02:14:45;99807.69;;;7.05;59.31
60489;BME280;46331;49.252;8.904;2023-12-28T02:15:27;99806.31;;;6.96;60.03
60489;BME280;46331;49.252;8.904;2023-12-28T02:16:13;99804.38;;;7.16;59.19
60489;BME280;46331;49.252;8.904;2023-12-28T02:17:19;99807.13;;;7.28;59.60
60489;BME280;46331;49.252;8.904;2023-12-28T02:18:08;99805.34;;;7.22;59.71
60489;BME280;46331;49.252;8.904;2023-12-28T02:18:53;99806.00;;;7.18;59.72
60489;BME280;46331;49.252;8.904;2023-12-28T02:19:48;99797.50;;;7.15;58.96
60489;BME280;46331;49.252;8.904;2023-12-28T02:20:30;99791.69;;;7.00;59.36
60489;BME280;46331;49.252;8.904;2023-12-28T02:21:13;99795.06;;;7.14;59.58
60489;BME280;46331;49.252;8.904;2023-12-28T02:21:54;99794.50;;;7.05;59.36
60489;BME280;46331;49.252;8.904;2023-12-28T02:22:35;99791.44;;;7.08;59.27
60489;BME280;46331;49.252;8.904;2023-12-28T02:23:16;99790.22;;;7.11;59.26
60489;BME280;46331;49.252;8.904;2023-12-28T02:23:57;99792.28;;;7.02;58.96
60489;BME280;46331;49.252;8.904;2023-12-28T02:25:37;99801.53;;;7.18;59.40
60489;BME280;46331;49.252;8.904;2023-12-28T02:26:18;99800.28;;;7.21;59.26
60489;BME280;46331;49.252;8.904;2023-12-28T02:26:58;99807.53;;;7.00;59.43
60489;BME280;46331;49.252;8.904;2023-12-28T02:27:44;99809.75;;;7.35;59.45
60489;BME280;46331;49.252;8.904;2023-12-28T02:28:26;99808.75;;;7.29;59.45
60489;BME280;46331;49.252;8.904;2023-12-28T02:29:07;99805.28;;;7.36;59.08
60489;BME280;46331;49.252;8.904;2023-12-28T02:29:49;99814.47;;;7.26;58.87
60489;BME280;46331;49.252;8.904;2023-12-28T02:30:29;99818.69;;;7.34;59.45
60489;BME280;46331;49.252;8.904;2023-12-28T02:31:21;99812.25;;;7.55;59.28
60489;BME280;46331;49.252;8.904;2023-12-28T02:32:03;99811.41;;;7.55;59.28
60489;BME280;46331;49.252;8.904;2023-12-28T02:33:15;99808.84;;;7.73;59.35
60489;BME280;46331;49.252;8.904;2023-12-28T02:34:04;99812.03;;;7.57;58.58
60489;BME280;46331;49.252;8.904;2023-12-28T02:34:47;99813.09;;;7.74;58.81
60489;BME280;46331;49.252;8.904;2023-12-28T02:35:36;99816.53;;;7.75;59.29
60489;BME280;46331;49.252;8.904;2023-12-28T02:36:19;99815.09;;;7.79;59.19
60489;BME280;46331;49.252;8.904;2023-12-28T02:37:05;99821.38;;;7.78;59.19
60489;BME280;46331;49.252;8.904;2023-12-28T02:37:51;99813.22;;;7.86;59.20
60489;BME280;46331;49.252;8.904;2023-12-28T02:38:36;99819.84;;;7.95;59.44
60489;BME280;46331;49.252;8.904;2023-12-28T02:39:18;99817.72;;;7.79;58.92
60489;BME280;46331;49.252;8.904;2023-12-28T02:40:01;99817.41;;;7.94;58.78
60489;BME280;46331;49.252;8.904;2023-12-28T02:40:42;99824.47;;;8.00;59.00
60489;BME280;46331;49.252;8.904;2023-12-28T02:41:25;99822.41;;;8.02;58.95
60489;BME280;46331;49.252;8.904;2023-12-28T02:42:06;99818.31;;;8.06;59.15
60489;BME280;46331;49.252;8.904;2023-12-28T02:42:47;99815.00;;;8.11;59.12
60489;BME280;46331;49.252;8.904;2023-12-28T02:43:28;99815.81;;;8.11;58.30
60489;BME280;46331;49.252;8.904;2023-12-28T02:44:09;99822.34;;;8.09;58.58
60489;BME280;46331;49.252;8.904;2023-12-28T02:44:50;99814.06;;;8.23;58.84
60489;BME280;46331;49.252;8.904;2023-12-28T02:45:30;99818.53;;;8.23;58.80
60489;BME280;46331;49.252;8.904;2023-12-28T02:46:11;99817.44;;;8.31;58.44
60489;BME280;46331;49.252;8.904;2023-12-28T02:46:51;99808.13;;;8.28;58.32
60489;BME280;46331;49.252;8.904;2023-12-28T02:47:32;99804.31;;;8.24;58.77
60489;BME280;46331;49.252;8.904;2023-12-28T02:48:12;99811.19;;;8.25;58.78
60489;BME280;46331;49.252;8.904;2023-12-28T02:48:53;99819.22;;;8.37;58.76
60489;BME280;46331;49.252;8.904;2023-12-28T02:49:37;99814.84;;;8.49;58.59
60489;BME280;46331;49.252;8.904;2023-12-28T02:50:18;99815.81;;;8.55;58.40
60489;BME280;46331;49.252;8.904;2023-12-28T02:50:58;99804.47;;;8.29;58.31
60489;BME280;46331;49.252;8.904;2023-12-28T02:51:39;99820.03;;;8.56;58.84
60489;BME280;46331;49.252;8.904;2023-12-28T02:52:19;99808.66;;;8.37;58.52
60489;BME280;46331;49.252;8.904;2023-12-28T02:53:00;99800.28;;;8.40;58.72
60489;BME280;46331;49.252;8.904;2023-12-28T02:53:41;99803.50;;;8.61;58.77
60489;BME280;46331;49.252;8.904;2023-12-28T02:54:21;99818.28;;;8.68;58.22
60489;BME280;46331;49.252;8.904;2023-12-28T02:55:02;99808.00;;;8.60;57.88
60489;BME280;46331;49.252;8.904;2023-12-28T02:55:43;99814.25;;;8.66;57.79
60489;BME280;46331;49.252;8.904;2023-12-28T02:56:23;99803.50;;;8.61;58.23
60489;BME280;46331;49.252;8.904;2023-12-28T02:57:04;99803.13;;;8.75;58.20
60489;BME280;46331;49.252;8.904;2023-12-28T02:57:44;99799.94;;;8.85;58.08
60489;BME280;46331;49.252;8.904;2023-12-28T02:58:25;99809.38;;;8.81;57.73
60489;BME280;46331;49.252;8.904;2023-12-28T02:59:05;99808.25;;;8.89;57.90
60489;BME280;46331;49.252;8.904;2023-12-28T02:59:46;99803.56;;;8.91;57.65
60489;BME280;46331;49.252;8.904;2023-12-28T03:00:27;99802.88;;;8.95;57.59
60489;BME280;46331;49.252;8.904;2023-12-28T03:01:08;99803.84;;;9.01;57.21
60489;BME280;46331;49.252;8.904;2023-12-28T03:01:49;99816.38;;;9.06;57.82
60489;BME280;46331;49.252;8.904;2023-12-28T03:02:29;99806.25;;;9.03;57.07
60489;BME280;46331;49.252;8.904;2023-12-28T03:03:10;99806.50;;;9.13;57.20
60489;BME280;46331;49.252;8.904;2023-12-28T03:03:50;99806.50;;;9.13;57.66
60489;BME280;46331;49.252;8.904;2023-12-28T03:04:31;99808.63;;;9.23;57.35
60489;BME280;46331;49.252;8.904;2023-12-28T03:05:11;99798.72;;;9.30;57.04
60489;BME280;46331;49.252;8.904;2023-12-28T03:05:52;99799.78;;;9.29;56.93
60489;BME280;46331;49.252;8.904;2023-12-28T03:06:32;99803.56;;;9.21;57.24
60489;BME280;46331;49.252;8.904;2023-12-28T03:07:13;99809.88;;;9.20;56.85
60489;BME280;46331;49.252;8.904;2023-12-28T03:07:53;99805.59;;;9.19;56.86
60489;BME280;46331;49.252;8.904;2023-12-28T03:08:35;99807.09;;;9.27;56.03
60489;BME280;46331;49.252;8.904;2023-12-28T03:09:16;99808.84;;;9.33;56.03
60489;BME280;46331;49.252;8.904;2023-12-28T03:09:57;99799.00;;;9.52;56.16
60489;BME280;46331;49.252;8.904;2023-12-28T03:10:37;99803.41;;;9.58;56.37
60489;BME280;46331;49.252;8.904;2023-12-28T03:11:18;99805.25;;;9.70;56.00
60489;BME280;46331;49.252;8.904;2023-12-28T03:12:01;99800.84;;;9.87;56.15
60489;BME280;46331;49.252;8.904;2023-12-28T03:12:41;99806.97;;;9.99;55.55
60489;BME280;46331;49.252;8.904;2023-12-28T03:13:22;99799.47;;;9.96;55.36
60489;BME280;46331;49.252;8.904;2023-12-28T03:14:02;99807.44;;;10.08;55.61
60489;BME280;46331;49.252;8.904;2023-12-28T03:14:43;99793.94;;;10.10;54.90
60489;BME280;46331;49.252;8.904;2023-12-28T03:15:24;99791.88;;;10.12;55.41
60489;BME280;46331;49.252;8.904;2023-12-28T03:16:04;99793.84;;;10.05;55.06
60489;BME280;46331;49.252;8.904;2023-12-28T03:16:45;99802.38;;;10.18;54.72
60489;BME280;46331;49.252;8.904;2023-12-28T03:17:26;99799.81;;;10.24;55.06
60489;BME280;46331;49.252;8.904;2023-12-28T03:18:06;99799.34;;;10.27;54.92
60489;BME280;46331;49.252;8.904;2023-12-28T03:18:47;99797.97;;;10.36;54.66
60489;BME280;46331;49.252;8.904;2023-12-28T03:19:27;99794.84;;;10.27;53.88
60489;BME280;46331;49.252;8.904;2023-12-28T03:20:08;99791.66;;;10.37;54.49
60489;BME280;46331;49.252;8.904;2023-12-28T03:20:49;99786.53;;;10.47;54.47
60489;BME280;46331;49.252;8.904;2023-12-28T03:21:30;99794.59;;;10.52;54.04
60489;BME280;46331;49.252;8.904;2023-12-28T03:22:10;99796.31;;;10.59;54.01
60489;BME280;46331;49.252;8.904;2023-12-28T03:22:51;99788.03;;;10.55;53.60
60489;BME280;46331;49.252;8.904;2023-12-28T03:23:34;99789.63;;;10.56;53.32
60489;BME280;46331;49.252;8.904;2023-12-28T03:24:14;99789.66;;;10.44;54.38
60489;BME280;46331;49.252;8.904;2023-12-28T03:24:55;99785.72;;;10.47;53.30
60489;BME280;46331;49.252;8.904;2023-12-28T03:25:35;99784.19;;;10.91;51.08
60489;BME280;46331;49.252;8.904;2023-12-28T03:26:16;99788.38;;;11.33;51.14
60489;BME280;46331;49.252;8.904;2023-12-28T03:26:56;99790.97;;;11.45;50.64
60489;BME280;46331;49.252;8.904;2023-12-28T03:27:39;99783.53;;;11.64;49.76
60489;BME280;46331;49.252;8.904;2023-12-28T03:28:19;99788.03;;;11.80;49.40
60489;BME280;46331;49.252;8.904;2023-12-28T03:29:00;99781.34;;;11.95;47.68
60489;BME280;46331;49.252;8.904;2023-12-28T03:29:41;99784.88;;;12.18;47.13
60489;BME280;46331;49.252;8.904;2023-12-28T03:30:24;99793.41;;;12.42;47.77
60489;BME280;46331;49.252;8.904;2023-12-28T03:31:04;99800.56;;;12.41;47.03
60489;BME280;46331;49.252;8.904;2023-12-28T03:31:45;99803.88;;;12.48;45.47
60489;BME280;46331;49.252;8.904;2023-12-28T03:32:26;99793.13;;;12.87;46.22
60489;BME280;46331;49.252;8.904;2023-12-28T03:33:06;99795.84;;;13.20;46.44
60489;BME280;46331;49.252;8.904;2023-12-28T03:33:47;99795.38;;;13.55;45.59
60489;BME280;46331;49.252;8.904;2023-12-28T03:34:28;99797.56;;;13.04;45.19
60489;BME280;46331;49.252;8.904;2023-12-28T03:35:10;99809.16;;;13.20;45.46
60489;BME280;46331;49.252;8.904;2023-12-28T03:35:50;99800.13;;;13.53;44.59
60489;BME280;46331;49.252;8.904;2023-12-28T03:36:32;99806.69;;;13.73;44.38
60489;BME280;46331;49.252;8.904;2023-12-28T03:37:12;99806.41;;;13.69;45.08
60489;BME280;46331;49.252;8.904;2023-12-28T03:37:53;99802.47;;;13.77;45.16
60489;BME280;46331;49.252;8.904;2023-12-28T03:38:33;99811.91;;;13.57;45.28
60489;BME280;46331;49.252;8.904;2023-12-28T03:39:14;99816.69;;;13.93;45.72
60489;BME280;46331;49.252;8.904;2023-12-28T03:39:54;99811.94;;;13.63;45.42
60489;BME280;46331;49.252;8.904;2023-12-28T03:40:35;99811.69;;;13.64;46.39
60489;BME280;46331;49.252;8.904;2023-12-28T03:41:17;99816.72;;;13.06;46.87
60489;BME280;46331;49.252;8.904;2023-12-28T03:41:58;99813.13;;;13.17;46.35
60489;BME280;46331;49.252;8.904;2023-12-28T03:42:39;99817.88;;;13.37;46.41